createdAt,value
2018-05-17T00:02:16.569Z,7.40
2018-05-17T00:04:44.227Z,6.00
2018-05-17T00:07:11.805Z,6.37
2018-05-17T00:09:39.408Z,5.80
2018-05-17T00:12:07.035Z,5.63
2018-05-17T00:14:34.673Z,5.03
2018-05-17T00:17:02.245Z,5.83
2018-05-17T00:19:29.819Z,5.60
2018-05-17T00:21:57.465Z,5.73
2018-05-17T00:24:25.104Z,5.40
2018-05-17T00:26:52.682Z,5.10
2018-05-17T00:29:20.246Z,4.63
2018-05-17T00:31:47.887Z,5.00
2018-05-17T00:34:15.439Z,5.07
2018-05-17T00:36:43.109Z,4.40
2018-05-17T00:39:10.777Z,4.43
2018-05-17T00:41:38.523Z,4.20
2018-05-17T00:44:06.111Z,4.40
2018-05-17T00:46:33.727Z,5.13
2018-05-17T00:49:01.279Z,4.27
2018-05-17T00:51:28.920Z,4.40
2018-05-17T00:53:56.538Z,4.43
2018-05-17T00:56:24.207Z,3.60
2018-05-17T00:58:51.824Z,4.40
2018-05-17T01:01:19.433Z,4.17
2018-05-17T01:03:47.083Z,4.13
2018-05-17T01:06:14.745Z,5.27
2018-05-17T01:08:42.342Z,4.00
2018-05-17T01:11:09.954Z,4.13
2018-05-17T01:13:37.519Z,4.47
2018-05-17T01:16:05.176Z,3.80
2018-05-17T01:18:32.834Z,3.90
2018-05-17T01:21:00.471Z,3.60
2018-05-17T01:23:28.108Z,4.03
2018-05-17T01:25:55.704Z,3.77
2018-05-17T01:28:23.306Z,3.87
2018-05-17T01:30:50.968Z,3.70
2018-05-17T01:33:18.552Z,3.03
2018-05-17T01:35:46.161Z,5.13
2018-05-17T01:38:25.487Z,3.90
2018-05-17T01:40:53.055Z,4.10
2018-05-17T01:43:20.652Z,3.90
2018-05-17T01:45:48.212Z,3.63
2018-05-17T01:48:15.749Z,4.33
2018-05-17T01:50:43.318Z,4.50
2018-05-17T01:53:10.889Z,4.53
2018-05-17T01:55:38.443Z,3.73
2018-05-17T01:58:06.020Z,4.83
2018-05-17T02:00:33.562Z,3.97
2018-05-17T02:03:01.163Z,5.00
2018-05-17T02:05:28.734Z,3.80
2018-05-17T02:07:56.336Z,4.33
2018-05-17T02:10:23.927Z,4.43
2018-05-17T02:12:51.547Z,3.83
2018-05-17T02:15:19.520Z,3.77
2018-05-17T02:17:47.149Z,4.53
2018-05-17T02:20:14.691Z,4.63
2018-05-17T02:22:42.256Z,4.73
2018-05-17T02:25:09.850Z,4.57
2018-05-17T02:27:37.409Z,4.30
2018-05-17T02:30:04.982Z,4.60
2018-05-17T02:32:32.545Z,4.97
2018-05-17T02:35:00.156Z,5.30
2018-05-17T02:37:27.719Z,4.83
2018-05-17T02:39:55.288Z,3.80
2018-05-17T02:42:22.835Z,4.83
2018-05-17T02:44:50.541Z,5.00
2018-05-17T02:47:18.116Z,4.47
2018-05-17T02:49:45.700Z,4.10
2018-05-17T02:52:13.288Z,5.47
2018-05-17T02:54:40.852Z,4.37
2018-05-17T02:57:08.412Z,4.77
2018-05-17T02:59:35.962Z,6.20
2018-05-17T03:02:03.516Z,4.70
2018-05-17T03:04:31.081Z,5.47
2018-05-17T03:06:58.672Z,5.80
2018-05-17T03:09:26.265Z,6.10
2018-05-17T03:11:53.802Z,5.70
2018-05-17T03:14:21.347Z,6.00
2018-05-17T03:16:48.945Z,5.83
2018-05-17T03:19:16.491Z,5.97
2018-05-17T03:21:44.078Z,6.93
2018-05-17T03:24:11.641Z,7.13
2018-05-17T03:26:39.211Z,6.87
2018-05-17T03:29:06.785Z,7.13
2018-05-17T03:31:34.351Z,6.37
2018-05-17T03:34:01.967Z,6.03
2018-05-17T03:36:29.533Z,6.63
2018-05-17T03:38:57.128Z,6.20
2018-05-17T03:41:24.726Z,6.73
2018-05-17T03:43:52.302Z,7.23
2018-05-17T03:46:19.891Z,6.97
2018-05-17T03:48:47.495Z,6.87
2018-05-17T03:51:15.345Z,6.67
2018-05-17T03:53:42.931Z,6.70
2018-05-17T03:56:10.518Z,6.43
2018-05-17T03:58:38.095Z,7.43
2018-05-17T04:01:17.341Z,7.00
2018-05-17T04:03:56.696Z,6.83
2018-05-17T04:06:42.176Z,6.47
2018-05-17T04:09:09.732Z,9.10
2018-05-17T04:11:37.407Z,7.57
2018-05-17T04:14:05.033Z,7.23
2018-05-17T04:16:32.633Z,7.50
2018-05-17T04:19:00.216Z,6.53
2018-05-17T04:21:27.837Z,6.33
2018-05-17T04:23:55.403Z,7.20
2018-05-17T04:26:22.967Z,5.73
2018-05-17T04:28:50.526Z,6.63
2018-05-17T04:31:18.086Z,6.73
2018-05-17T04:33:45.640Z,5.63
2018-05-17T04:36:13.351Z,5.70
2018-05-17T04:38:40.965Z,7.33
2018-05-17T04:41:08.525Z,6.67
2018-05-17T04:43:36.113Z,5.90
2018-05-17T04:46:03.726Z,6.57
2018-05-17T04:48:31.284Z,6.47
2018-05-17T04:50:58.854Z,6.13
2018-05-17T04:53:26.476Z,6.77
2018-05-17T04:55:54.061Z,6.80
2018-05-17T04:58:21.667Z,6.47
2018-05-17T05:00:49.234Z,8.00
2018-05-17T05:03:16.828Z,8.77
2018-05-17T05:05:44.376Z,5.67
2018-05-17T05:08:11.990Z,7.20
2018-05-17T05:10:39.581Z,7.63
2018-05-17T05:13:07.206Z,7.40
2018-05-17T05:15:34.779Z,7.30
2018-05-17T05:18:02.374Z,12.77
2018-05-17T05:20:29.944Z,7.47
2018-05-17T05:22:57.835Z,9.17
2018-05-17T05:25:25.482Z,6.43
2018-05-17T05:27:53.109Z,8.87
2018-05-17T05:30:20.789Z,7.87
2018-05-17T05:32:48.403Z,7.10
2018-05-17T05:35:16.020Z,7.73
2018-05-17T05:37:43.644Z,7.97
2018-05-17T05:40:11.717Z,8.43
2018-05-17T05:42:39.545Z,9.13
2018-05-17T05:45:07.788Z,9.73
2018-05-17T05:47:37.248Z,11.70
2018-05-17T05:50:05.811Z,9.67
2018-05-17T05:52:33.451Z,8.27
2018-05-17T05:55:01.753Z,9.33
2018-05-17T05:57:29.319Z,9.23
2018-05-17T05:59:56.883Z,9.37
2018-05-17T06:02:24.662Z,9.73
2018-05-17T06:04:52.204Z,10.80
2018-05-17T06:07:19.749Z,9.27
2018-05-17T06:09:47.382Z,8.27
2018-05-17T06:12:15.034Z,8.67
2018-05-17T06:14:42.700Z,7.87
2018-05-17T06:17:11.043Z,9.37
2018-05-17T06:19:39.003Z,9.57
2018-05-17T06:22:06.725Z,10.23
2018-05-17T06:24:35.080Z,10.43
2018-05-17T06:27:02.708Z,8.30
2018-05-17T06:29:30.450Z,8.47
2018-05-17T06:31:58.162Z,9.67
2018-05-17T06:34:27.123Z,9.27
2018-05-17T06:36:56.124Z,9.00
2018-05-17T06:39:24.142Z,9.87
2018-05-17T06:41:51.948Z,8.57
2018-05-17T06:44:19.511Z,7.67
2018-05-17T06:46:47.171Z,10.50
2018-05-17T06:49:14.980Z,8.73
2018-05-17T06:51:43.269Z,8.83
2018-05-17T06:54:11.242Z,8.80
2018-05-17T06:56:39.623Z,9.60
2018-05-17T06:59:07.338Z,10.67
2018-05-17T07:01:34.939Z,10.87
2018-05-17T07:04:02.554Z,11.03
2018-05-17T07:06:30.196Z,11.13
2018-05-17T07:08:57.803Z,10.50
2018-05-17T07:11:25.457Z,10.30
2018-05-17T07:13:53.013Z,11.53
2018-05-17T07:16:20.657Z,12.60
2018-05-17T07:18:48.498Z,12.53
2018-05-17T07:21:15.796Z,12.00
2018-05-17T07:23:43.393Z,12.60
2018-05-17T07:26:11.013Z,13.40
2018-05-17T07:28:38.605Z,12.13
2018-05-17T07:31:06.255Z,11.70
2018-05-17T07:33:33.996Z,11.77
2018-05-17T07:36:01.641Z,13.73
2018-05-17T07:38:29.258Z,13.47
2018-05-17T07:40:57.392Z,14.03
2018-05-17T07:43:24.948Z,14.17
2018-05-17T07:45:52.563Z,14.13
2018-05-17T07:48:20.134Z,12.43
2018-05-17T07:50:47.744Z,11.47
2018-05-17T07:53:15.333Z,11.10
2018-05-17T07:55:43.016Z,10.27
2018-05-17T07:58:10.651Z,10.20
2018-05-17T08:00:38.312Z,11.20
2018-05-17T08:03:06.223Z,10.27
2018-05-17T08:05:33.848Z,11.77
2018-05-17T08:08:01.444Z,10.90
2018-05-17T08:10:29.078Z,12.03
2018-05-17T08:12:56.743Z,13.10
2018-05-17T08:15:24.450Z,12.77
2018-05-17T08:17:52.115Z,12.23
2018-05-17T08:20:19.653Z,10.60
2018-05-17T08:22:47.294Z,12.27
2018-05-17T08:25:14.890Z,10.43
2018-05-17T08:27:42.504Z,10.43
2018-05-17T08:30:10.054Z,10.87
2018-05-17T08:32:37.736Z,9.53
2018-05-17T08:35:05.710Z,8.07
2018-05-17T08:37:33.291Z,7.77
2018-05-17T08:40:00.877Z,8.03
2018-05-17T08:42:28.520Z,8.13
2018-05-17T08:44:56.662Z,8.80
2018-05-17T08:47:24.311Z,8.37
2018-05-17T08:49:52.028Z,6.93
2018-05-17T08:52:19.638Z,7.63
2018-05-17T08:54:47.292Z,7.67
2018-05-17T08:57:14.878Z,6.80
2018-05-17T08:59:42.454Z,8.33
2018-05-17T09:02:10.058Z,7.97
2018-05-17T09:04:37.644Z,8.33
2018-05-17T09:07:05.249Z,8.63
2018-05-17T09:09:32.828Z,9.30
2018-05-17T09:12:00.401Z,8.50
2018-05-17T09:14:27.964Z,9.10
2018-05-17T09:16:55.598Z,8.73
2018-05-17T09:19:23.171Z,8.93
2018-05-17T09:21:50.766Z,10.60
2018-05-17T09:24:18.376Z,9.13
2018-05-17T09:26:45.972Z,8.47
2018-05-17T09:29:13.578Z,8.07
2018-05-17T09:31:41.177Z,9.43
2018-05-17T09:34:08.830Z,8.27
2018-05-17T09:36:36.775Z,8.50
2018-05-17T09:39:04.380Z,9.20
2018-05-17T09:41:31.959Z,7.18
2018-05-17T09:43:59.595Z,8.85
2018-05-17T09:46:27.187Z,6.78
2018-05-17T09:48:54.786Z,6.18
2018-05-17T09:51:22.421Z,8.05
2018-05-17T09:53:49.972Z,9.07
2018-05-17T09:56:17.515Z,10.10
2018-05-17T09:58:45.096Z,8.57
2018-05-17T10:01:12.652Z,7.72
2018-05-17T10:03:40.228Z,8.75
2018-05-17T10:06:07.808Z,7.07
2018-05-17T10:08:35.374Z,7.97
2018-05-17T10:11:02.912Z,6.68
2018-05-17T10:13:30.490Z,6.78
2018-05-17T10:15:58.082Z,7.32
2018-05-17T10:18:25.673Z,6.65
2018-05-17T10:20:53.234Z,6.57
2018-05-17T10:23:20.845Z,6.00
2018-05-17T10:25:48.426Z,6.05
2018-05-17T10:28:15.995Z,5.82
2018-05-17T10:30:43.586Z,5.82
2018-05-17T10:33:11.153Z,6.57
2018-05-17T10:35:38.713Z,6.12
2018-05-17T10:38:06.300Z,8.13
2018-05-17T10:40:37.807Z,7.03
2018-05-17T10:43:05.402Z,7.12
2018-05-17T10:45:33.007Z,6.45
2018-05-17T10:48:00.581Z,5.87
2018-05-17T10:50:28.126Z,7.15
2018-05-17T10:52:55.733Z,7.05
2018-05-17T10:55:23.361Z,7.45
2018-05-17T10:57:50.954Z,6.55
2018-05-17T11:00:18.553Z,7.05
2018-05-17T11:02:46.111Z,6.40
2018-05-17T11:05:13.725Z,7.72
2018-05-17T11:07:41.260Z,6.20
2018-05-17T11:10:08.824Z,6.37
2018-05-17T11:12:36.468Z,6.75
2018-05-17T11:15:04.119Z,6.45
2018-05-17T11:17:31.704Z,6.20
2018-05-17T11:19:59.390Z,6.30
2018-05-17T11:22:26.949Z,6.35
2018-05-17T11:24:54.516Z,6.60
2018-05-17T11:27:22.130Z,6.55
2018-05-17T11:29:49.723Z,6.43
2018-05-17T11:32:17.257Z,6.00
2018-05-17T11:34:44.869Z,6.78
2018-05-17T11:37:12.473Z,7.78
2018-05-17T11:39:40.096Z,9.50
2018-05-17T11:42:07.629Z,6.43
2018-05-17T11:44:35.267Z,6.67
2018-05-17T11:47:02.840Z,6.13
2018-05-17T11:49:30.449Z,6.10
2018-05-17T11:51:57.997Z,6.30
2018-05-17T11:54:25.711Z,6.83
2018-05-17T11:56:53.353Z,7.47
2018-05-17T11:59:21.021Z,6.07
2018-05-17T12:01:48.754Z,6.23
2018-05-17T12:04:16.411Z,8.43
2018-05-17T12:06:44.550Z,5.73
2018-05-17T12:09:12.132Z,6.47
2018-05-17T12:11:39.702Z,6.00
2018-05-17T12:14:07.369Z,5.83
2018-05-17T12:16:34.926Z,6.90
2018-05-17T12:19:02.585Z,6.10
2018-05-17T12:21:30.227Z,5.00
2018-05-17T12:23:57.832Z,5.93
2018-05-17T12:26:25.415Z,5.90
2018-05-17T12:28:53.005Z,6.03
2018-05-17T12:31:20.613Z,5.10
2018-05-17T12:33:48.181Z,6.23
2018-05-17T12:36:15.741Z,6.33
2018-05-17T12:38:43.291Z,5.47
2018-05-17T12:41:11.747Z,5.30
2018-05-17T12:43:39.294Z,5.57
2018-05-17T12:46:06.860Z,6.33
2018-05-17T12:48:34.453Z,6.67
2018-05-17T12:51:02.041Z,6.13
2018-05-17T12:53:29.837Z,6.27
2018-05-17T12:55:57.413Z,6.00
2018-05-17T12:58:25.182Z,6.13
2018-05-17T13:00:53.063Z,6.00
2018-05-17T13:03:20.654Z,5.67
2018-05-17T13:05:48.241Z,5.77
2018-05-17T13:08:15.801Z,6.13
2018-05-17T13:10:43.506Z,5.73
2018-05-17T13:13:11.140Z,5.10
2018-05-17T13:15:38.820Z,5.80
2018-05-17T13:18:06.358Z,4.30
2018-05-17T13:20:33.983Z,4.93
2018-05-17T13:23:01.539Z,5.03
2018-05-17T13:25:29.142Z,4.83
2018-05-17T13:27:56.680Z,5.47
2018-05-17T13:30:24.325Z,5.83
2018-05-17T13:32:51.890Z,5.50
2018-05-17T13:35:19.429Z,5.30
2018-05-17T13:37:46.997Z,5.57
2018-05-17T13:40:14.536Z,5.27
2018-05-17T13:42:42.088Z,5.63
2018-05-17T13:45:09.699Z,5.40
2018-05-17T13:47:37.299Z,5.57
2018-05-17T13:50:04.939Z,5.60
2018-05-17T13:52:32.543Z,5.73
2018-05-17T13:55:00.142Z,5.80
2018-05-17T13:57:27.760Z,7.17
2018-05-17T13:59:55.317Z,5.57
2018-05-17T14:02:22.943Z,5.50
2018-05-17T14:04:50.593Z,5.63
2018-05-17T14:07:18.182Z,5.73
2018-05-17T14:09:45.745Z,5.60
2018-05-17T14:12:13.351Z,4.93
2018-05-17T14:14:40.872Z,5.47
2018-05-17T14:17:08.490Z,5.20
2018-05-17T14:19:36.058Z,5.43
2018-05-17T14:22:03.629Z,4.80
2018-05-17T14:24:31.227Z,5.50
2018-05-17T14:26:58.801Z,5.50
2018-05-17T14:29:26.368Z,5.27
2018-05-17T14:31:53.955Z,4.67
2018-05-17T14:34:21.626Z,5.57
2018-05-17T14:36:49.192Z,4.90
2018-05-17T14:39:17.505Z,4.67
2018-05-17T14:41:45.132Z,5.43
2018-05-17T14:44:12.753Z,5.37
2018-05-17T14:46:40.286Z,4.97
2018-05-17T14:49:07.853Z,6.30
2018-05-17T14:51:35.456Z,4.27
2018-05-17T14:54:03.252Z,4.90
2018-05-17T14:56:30.883Z,4.33
2018-05-17T14:58:58.668Z,4.90
2018-05-17T15:01:26.236Z,4.83
2018-05-17T15:03:53.823Z,5.33
2018-05-17T15:06:21.425Z,4.23
2018-05-17T15:08:48.998Z,5.20
2018-05-17T15:11:16.799Z,4.10
2018-05-17T15:13:44.400Z,4.90
2018-05-17T15:16:12.120Z,5.33
2018-05-17T15:18:39.741Z,5.60
2018-05-17T15:21:07.387Z,5.80
2018-05-17T15:23:35.022Z,5.87
2018-05-17T15:26:02.584Z,4.90
2018-05-17T15:28:30.159Z,4.90
2018-05-17T15:30:57.778Z,5.80
2018-05-17T15:33:25.342Z,4.63
2018-05-17T15:35:52.897Z,5.33
2018-05-17T15:38:20.545Z,6.00
2018-05-17T15:40:48.167Z,6.30
2018-05-17T15:43:15.733Z,5.43
2018-05-17T15:45:43.390Z,5.40
2018-05-17T15:48:11.111Z,8.10
2018-05-17T15:50:38.656Z,14.30
2018-05-17T15:53:06.252Z,5.23
2018-05-17T15:55:33.916Z,6.70
2018-05-17T15:58:01.519Z,6.33
2018-05-17T16:00:29.100Z,4.83
2018-05-17T16:02:56.717Z,5.50
2018-05-17T16:05:24.329Z,4.70
2018-05-17T16:07:51.933Z,5.50
2018-05-17T16:10:20.277Z,5.40
2018-05-17T16:12:48.141Z,5.17
2018-05-17T16:15:15.979Z,4.47
2018-05-17T16:17:43.500Z,5.53
2018-05-17T16:20:11.090Z,5.30
2018-05-17T16:22:38.935Z,5.60
2018-05-17T16:25:06.745Z,5.70
2018-05-17T16:27:34.438Z,4.83
2018-05-17T16:30:02.045Z,5.13
2018-05-17T16:32:29.689Z,4.67
2018-05-17T16:34:57.394Z,15.33
2018-05-17T16:37:25.060Z,5.20
2018-05-17T16:39:53.209Z,5.60
2018-05-17T16:42:20.868Z,5.77
2018-05-17T16:44:48.475Z,7.80
2018-05-17T16:47:16.022Z,6.80
2018-05-17T16:49:43.556Z,6.87
2018-05-17T16:52:11.199Z,4.33
2018-05-17T16:54:38.819Z,5.67
2018-05-17T16:57:06.681Z,5.33
2018-05-17T16:59:34.343Z,5.13
2018-05-17T17:02:01.909Z,4.97
2018-05-17T17:04:29.523Z,6.33
2018-05-17T17:06:57.187Z,6.23
2018-05-17T17:09:24.697Z,5.57
2018-05-17T17:11:52.304Z,6.33
2018-05-17T17:14:19.879Z,4.80
2018-05-17T17:16:47.520Z,5.60
2018-05-17T17:19:15.136Z,6.37
2018-05-17T17:21:42.701Z,5.30
2018-05-17T17:24:11.201Z,5.13
2018-05-17T17:26:38.745Z,7.47
2018-05-17T17:29:06.308Z,6.77
2018-05-17T17:31:33.877Z,6.27
2018-05-17T17:34:01.455Z,4.77
2018-05-17T17:36:29.211Z,5.87
2018-05-17T17:38:56.753Z,6.50
2018-05-17T17:41:24.308Z,5.80
2018-05-17T17:43:51.910Z,6.47
2018-05-17T17:46:19.443Z,7.97
2018-05-17T17:48:47.023Z,5.30
2018-05-17T17:51:14.565Z,4.67
2018-05-17T17:53:42.148Z,7.63
2018-05-17T17:56:09.704Z,8.27
2018-05-17T17:58:37.285Z,19.37
2018-05-17T18:01:04.824Z,6.33
2018-05-17T18:03:32.552Z,5.73
2018-05-17T18:06:00.131Z,7.20
2018-05-17T18:08:27.723Z,9.43
2018-05-17T18:10:55.267Z,9.23
2018-05-17T18:13:22.910Z,5.50
2018-05-17T18:15:51.141Z,4.53
2018-05-17T18:18:19.708Z,5.77
2018-05-17T18:20:47.272Z,4.87
2018-05-17T18:23:14.890Z,5.07
2018-05-17T18:25:42.467Z,5.43
2018-05-17T18:28:10.045Z,5.73
2018-05-17T18:30:37.625Z,5.63
2018-05-17T18:33:05.984Z,5.30
2018-05-17T18:35:33.565Z,4.80
2018-05-17T18:38:01.141Z,4.90
2018-05-17T18:40:28.822Z,4.30
2018-05-17T18:42:56.434Z,4.73
2018-05-17T18:45:24.139Z,4.87
2018-05-17T18:47:51.912Z,6.33
2018-05-17T18:50:19.528Z,6.50
2018-05-17T18:52:47.175Z,5.27
2018-05-17T18:55:14.797Z,4.70
2018-05-17T18:57:42.463Z,5.63
2018-05-17T19:00:10.148Z,5.90
2018-05-17T19:02:38.034Z,5.83
2018-05-17T19:05:05.703Z,5.57
2018-05-17T19:07:33.395Z,5.07
2018-05-17T19:10:01.388Z,5.77
2018-05-17T19:12:29.016Z,4.93
2018-05-17T19:14:56.787Z,5.00
2018-05-17T19:17:26.363Z,5.10
2018-05-17T19:19:54.249Z,5.30
2018-05-17T19:22:21.874Z,5.77
2018-05-17T19:24:50.114Z,5.23
2018-05-17T19:27:17.730Z,5.20
2018-05-17T19:29:45.449Z,5.90
2018-05-17T19:32:13.100Z,6.03
2018-05-17T19:34:40.759Z,5.57
2018-05-17T19:37:08.533Z,5.70
2018-05-17T19:39:36.204Z,5.67
2018-05-17T19:42:03.856Z,5.53
2018-05-17T19:44:31.555Z,5.43
2018-05-17T19:46:59.189Z,4.90
2018-05-17T19:49:27.000Z,5.57
2018-05-17T19:51:54.628Z,5.53
2018-05-17T19:54:22.306Z,6.00
2018-05-17T19:56:50.018Z,7.27
2018-05-17T19:59:17.647Z,6.27
2018-05-17T20:01:45.303Z,6.07
2018-05-17T20:04:12.897Z,5.37
2018-05-17T20:06:40.525Z,6.93
2018-05-17T20:09:08.178Z,5.53
2018-05-17T20:11:35.825Z,6.43
2018-05-17T20:14:03.486Z,7.43
2018-05-17T20:16:31.176Z,7.17
2018-05-17T20:18:58.782Z,5.67
2018-05-17T20:21:26.369Z,5.87
2018-05-17T20:23:53.932Z,6.40
2018-05-17T20:26:21.510Z,6.53
2018-05-17T20:28:49.083Z,6.60
2018-05-17T20:31:16.652Z,5.77
2018-05-17T20:33:44.194Z,5.77
2018-05-17T20:36:11.764Z,6.50
2018-05-17T20:38:39.316Z,6.27
2018-05-17T20:41:06.924Z,6.00
2018-05-17T20:43:34.544Z,6.27
2018-05-17T20:46:02.117Z,5.77
2018-05-17T20:48:29.687Z,6.70
2018-05-17T20:50:57.342Z,6.97
2018-05-17T20:53:24.892Z,5.80
2018-05-17T20:55:52.776Z,7.57
2018-05-17T20:58:20.583Z,7.47
2018-05-17T21:00:48.528Z,6.77
2018-05-17T21:05:49.845Z,7.33
2018-05-17T21:08:17.387Z,6.37
2018-05-17T21:10:45.010Z,6.53
2018-05-17T21:13:12.612Z,6.47
2018-05-17T21:15:40.171Z,6.90
2018-05-17T21:18:07.733Z,6.33
2018-05-17T21:20:35.276Z,7.23
2018-05-17T21:23:02.831Z,6.30
2018-05-17T21:25:30.380Z,7.17
2018-05-17T21:27:57.995Z,6.33
2018-05-17T21:30:25.544Z,6.07
2018-05-17T21:32:53.124Z,6.60
2018-05-17T21:35:20.674Z,6.70
2018-05-17T21:37:48.270Z,6.90
2018-05-17T21:40:15.857Z,7.63
2018-05-17T21:42:43.435Z,6.80
2018-05-17T21:45:11.114Z,6.40
2018-05-17T21:47:38.748Z,7.20
2018-05-17T21:50:06.332Z,7.03
2018-05-17T21:52:33.981Z,6.57
2018-05-17T21:55:01.539Z,5.90
2018-05-17T21:57:29.115Z,6.50
2018-05-17T21:59:56.703Z,6.20
2018-05-17T22:02:24.318Z,6.57
2018-05-17T22:04:51.874Z,7.00
2018-05-17T22:07:19.511Z,7.67
2018-05-17T22:09:47.079Z,7.10
2018-05-17T22:12:14.639Z,6.30
2018-05-17T22:14:42.189Z,7.27
2018-05-17T22:17:09.767Z,6.80
2018-05-17T22:19:37.333Z,7.20
2018-05-17T22:22:04.901Z,7.07
2018-05-17T22:24:32.441Z,8.20
2018-05-17T22:27:00.007Z,7.17
2018-05-17T22:29:27.650Z,7.23
2018-05-17T22:31:55.236Z,7.53
2018-05-17T22:34:22.766Z,7.87
2018-05-17T22:36:50.412Z,8.07
2018-05-17T22:39:17.933Z,8.90
2018-05-17T22:41:45.473Z,8.30
2018-05-17T22:44:13.201Z,8.47
2018-05-17T22:46:40.748Z,8.87
2018-05-17T22:49:08.320Z,8.50
2018-05-17T22:51:35.866Z,8.20
2018-05-17T22:54:03.450Z,7.73
2018-05-17T22:56:42.815Z,8.57
2018-05-17T22:59:10.476Z,7.43
2018-05-17T23:01:38.033Z,8.17
2018-05-17T23:04:06.061Z,8.87
2018-05-17T23:06:33.593Z,8.20
2018-05-17T23:09:01.130Z,8.60
2018-05-17T23:11:28.663Z,8.47
2018-05-17T23:13:56.276Z,8.17
2018-05-17T23:16:23.822Z,8.20
2018-05-17T23:18:51.409Z,8.30
2018-05-17T23:21:19.067Z,8.63
2018-05-17T23:23:46.681Z,7.47
2018-05-17T23:26:14.252Z,7.80
2018-05-17T23:28:41.843Z,7.13
2018-05-17T23:31:09.382Z,6.77
2018-05-17T23:33:37.250Z,7.00
2018-05-17T23:36:04.828Z,6.60
2018-05-17T23:38:32.447Z,7.13
2018-05-17T23:41:12.477Z,6.60
2018-05-17T23:43:40.129Z,8.17
2018-05-17T23:46:07.742Z,7.30
2018-05-17T23:48:35.355Z,7.27
2018-05-17T23:51:02.930Z,7.67
2018-05-17T23:53:30.506Z,6.53
2018-05-17T23:55:58.302Z,7.50
2018-05-17T23:58:25.956Z,7.20
